Time;durP1;ratioP1;P1;durP2;ratioP2;P2;SDS_P1;SDS_P2;PMS_P1;PMS_P2;Temp;Humidity;BMP_temperature;BMP_pressure;BME280_temperature;BME280_humidity;BME280_pressure;Samples;Min_cycle;Max_cycle;Signal;HPM_P1;HPM_P2
2023/12/26 00:01:14;;;;;;;1.97;0.90;;;12.90;99.90;;;;;;5007962;28;20617;-88
2023/12/26 00:03:39;;;;;;;1.13;0.90;;;13.30;99.90;;;;;;5001291;28;20399;-85
2023/12/26 00:06:06;;;;;;;2.03;1.10;;;13.20;99.90;;;;;;5015905;28;20170;-88
2023/12/26 00:08:32;;;;;;;1.17;0.88;;;12.80;99.90;;;;;;5012052;28;20452;-86
2023/12/26 00:10:58;;;;;;;2.03;1.03;;;13.10;99.90;;;;;;5000844;28;20599;-87
2023/12/26 00:13:24;;;;;;;1.60;0.85;;;;;;;;;;5013919;28;20356;-86
2023/12/26 00:15:51;;;;;;;1.00;0.90;;;13.00;99.90;;;;;;5002697;28;20440;-88
2023/12/26 00:18:17;;;;;;;2.08;0.80;;;13.00;99.90;;;;;;5010460;28;20326;-87
2023/12/26 00:20:43;;;;;;;1.93;1.00;;;13.00;99.90;;;;;;5021951;28;20525;-88
2023/12/26 00:23:13;;;;;;;1.35;0.80;;;13.00;99.90;;;;;;4995614;28;20781;-84
2023/12/26 00:25:39;;;;;;;1.45;1.10;;;13.00;99.90;;;;;;5014230;28;20033;-87
2023/12/26 00:28:05;;;;;;;1.80;1.00;;;12.90;99.90;;;;;;4991337;28;20123;-85
2023/12/26 00:30:31;;;;;;;0.88;0.80;;;12.00;99.90;;;;;;5006750;28;20367;-87
2023/12/26 00:32:57;;;;;;;2.00;1.13;;;;;;;;;;4991037;28;20044;-87
2023/12/26 00:35:24;;;;;;;1.20;0.80;;;12.90;99.90;;;;;;5014652;28;20470;-86
2023/12/26 00:37:50;;;;;;;1.00;0.90;;;12.80;99.90;;;;;;5010701;28;20478;-86
2023/12/26 00:40:16;;;;;;;1.08;0.80;;;12.80;99.90;;;;;;5004507;28;20096;-86
2023/12/26 00:42:43;;;;;;;2.20;0.80;;;12.80;99.90;;;;;;5003893;28;20333;-88
2023/12/26 00:45:09;;;;;;;1.48;0.60;;;12.80;99.90;;;;;;4992156;28;20040;-87
2023/12/26 00:47:35;;;;;;;2.97;0.80;;;12.80;99.90;;;;;;5024799;28;20293;-89
2023/12/26 00:50:02;;;;;;;1.00;0.80;;;12.80;99.90;;;;;;5028562;28;20430;-85
2023/12/26 00:52:30;;;;;;;0.90;0.80;;;12.70;99.90;;;;;;5010009;28;20037;-88
2023/12/26 00:54:56;;;;;;;1.27;0.70;;;12.70;99.90;;;;;;4992484;28;20029;-85
2023/12/26 00:57:24;;;;;;;1.75;0.90;;;12.20;99.90;;;;;;5000631;28;20799;-88
2023/12/26 00:59:50;;;;;;;2.08;0.88;;;12.70;99.90;;;;;;5009767;28;20028;-85
2023/12/26 01:02:16;;;;;;;1.10;0.80;;;12.70;99.90;;;;;;4987442;28;20021;-86
2023/12/26 01:04:42;;;;;;;2.40;1.03;;;12.70;99.90;;;;;;5014743;28;20017;-88
2023/12/26 01:07:07;;;;;;;2.80;0.90;;;12.70;99.90;;;;;;5017261;28;20086;-90
2023/12/26 01:09:34;;;;;;;1.10;0.80;;;12.60;99.90;;;;;;5018622;28;20134;-88
2023/12/26 01:12:01;;;;;;;1.70;0.80;;;12.60;99.90;;;;;;5025124;28;20993;-88
2023/12/26 01:14:28;;;;;;;1.88;0.90;;;12.70;99.90;;;;;;5021171;28;20584;-87
2023/12/26 01:16:53;;;;;;;1.17;0.90;;;12.20;99.90;;;;;;4990527;28;20030;-86
2023/12/26 01:19:19;;;;;;;1.35;0.90;;;12.60;99.90;;;;;;5020741;28;20029;-86
2023/12/26 01:21:48;;;;;;;1.23;1.00;;;12.60;99.90;;;;;;5012969;28;20128;-84
2023/12/26 01:24:14;;;;;;;1.30;1.00;;;12.60;99.90;;;;;;5012831;28;20029;-89
2023/12/26 01:26:39;;;;;;;1.90;1.00;;;12.60;99.90;;;;;;5003939;28;20447;-86
2023/12/26 01:29:07;;;;;;;1.55;0.95;;;12.60;99.90;;;;;;5005229;28;20032;-86
2023/12/26 01:31:36;;;;;;;2.15;1.17;;;12.60;99.90;;;;;;5005714;28;20055;-85
2023/12/26 01:34:03;;;;;;;2.03;1.10;;;12.60;99.90;;;;;;5018712;28;20029;-88
2023/12/26 01:36:29;;;;;;;2.40;1.17;;;12.60;99.90;;;;;;4995391;28;20223;-86
2023/12/26 01:38:57;;;;;;;2.13;1.10;;;12.60;99.90;;;;;;5016544;28;20076;-87
2023/12/26 01:41:22;;;;;;;1.38;1.10;;;12.60;99.90;;;;;;5001915;28;20494;-89
2023/12/26 01:43:48;;;;;;;1.80;0.98;;;12.60;99.90;;;;;;5010517;28;20025;-88
2023/12/26 01:46:15;;;;;;;4.00;1.17;;;12.60;99.90;;;;;;5010250;28;20080;-92
2023/12/26 01:48:47;;;;;;;2.85;1.63;;;12.50;99.90;;;;;;4988724;28;20026;-87
2023/12/26 01:51:16;;;;;;;3.55;1.52;;;12.50;99.90;;;;;;5009336;28;20033;-91
2023/12/26 01:53:42;;;;;;;1.05;0.95;;;12.60;99.90;;;;;;5016153;28;20041;-85
2023/12/26 01:56:10;;;;;;;2.00;1.10;;;12.60;99.90;;;;;;4999072;28;20025;-89
2023/12/26 01:58:37;;;;;;;3.30;1.00;;;13.70;99.90;;;;;;5005414;28;20045;-89
2023/12/26 02:01:04;;;;;;;1.25;0.90;;;12.50;99.90;;;;;;5003590;28;20017;-85
2023/12/26 02:03:32;;;;;;;1.75;0.93;;;9.90;99.90;;;;;;4985490;28;20261;-90
2023/12/26 02:06:00;;;;;;;2.95;1.27;;;12.50;99.90;;;;;;5003691;28;20112;-87
2023/12/26 02:08:27;;;;;;;2.27;1.20;;;12.60;99.90;;;;;;4979034;28;20044;-87
2023/12/26 02:10:53;;;;;;;2.28;1.20;;;12.50;99.90;;;;;;5022096;28;20021;-89
2023/12/26 02:13:19;;;;;;;1.50;1.00;;;12.50;99.90;;;;;;4967805;28;20032;-89
2023/12/26 02:15:54;;;;;;;1.30;1.10;;;12.60;99.90;;;;;;5012529;28;20028;-89
2023/12/26 02:18:21;;;;;;;2.88;1.40;;;12.60;99.90;;;;;;4981331;28;20905;-86
2023/12/26 02:20:47;;;;;;;1.97;1.40;;;12.60;99.90;;;;;;4988547;28;20071;-84
2023/12/26 02:23:13;;;;;;;2.80;1.27;;;12.50;99.90;;;;;;4989949;28;20049;-88
2023/12/26 02:25:39;;;;;;;2.25;1.10;;;;;;;;;;4999121;28;20060;-86
2023/12/26 02:28:07;;;;;;;2.30;1.20;;;12.60;99.90;;;;;;5009770;28;20445;-89
2023/12/26 02:30:35;;;;;;;2.57;1.20;;;12.50;99.90;;;;;;4990874;28;20583;-86
2023/12/26 02:33:04;;;;;;;2.22;1.40;;;12.50;99.90;;;;;;5027694;28;20615;-86
2023/12/26 02:35:30;;;;;;;1.50;1.10;;;12.60;99.90;;;;;;4998040;28;20148;-87
2023/12/26 02:37:56;;;;;;;1.60;1.20;;;12.50;99.90;;;;;;5009770;28;20017;-87
2023/12/26 02:40:22;;;;;;;1.53;1.07;;;12.60;99.90;;;;;;5020205;28;20021;-90
2023/12/26 02:42:47;;;;;;;2.38;1.13;;;12.60;99.90;;;;;;5017195;28;20302;-85
2023/12/26 02:45:16;;;;;;;2.10;1.13;;;12.50;99.90;;;;;;5002113;28;20037;-90
2023/12/26 02:47:41;;;;;;;2.13;1.00;;;12.50;99.90;;;;;;5010983;28;20498;-89
2023/12/26 02:50:09;;;;;;;2.20;1.00;;;12.50;99.90;;;;;;4985163;28;20023;-88
2023/12/26 02:52:34;;;;;;;1.67;0.98;;;12.50;99.90;;;;;;5035768;28;20020;-86
2023/12/26 02:55:00;;;;;;;1.70;1.10;;;12.50;99.90;;;;;;5029024;28;20036;-85
2023/12/26 02:57:26;;;;;;;1.80;1.00;;;12.50;99.90;;;;;;5010420;28;20029;-88
2023/12/26 02:59:52;;;;;;;1.40;1.20;;;12.50;99.90;;;;;;5013926;28;20385;-87
2023/12/26 03:02:18;;;;;;;1.15;0.90;;;12.50;99.90;;;;;;5008295;28;20041;-87
2023/12/26 03:04:44;;;;;;;2.78;1.00;;;12.50;99.90;;;;;;5005205;28;20393;-88
2023/12/26 03:07:10;;;;;;;1.87;1.00;;;12.50;99.90;;;;;;5001064;28;20025;-89
2023/12/26 03:09:36;;;;;;;2.35;0.98;;;12.50;99.90;;;;;;5022649;28;20028;-87
2023/12/26 03:12:01;;;;;;;1.10;0.80;;;12.50;99.90;;;;;;5020001;28;20055;-84
2023/12/26 03:14:27;;;;;;;1.60;0.90;;;12.50;99.90;;;;;;5003486;28;20116;-90
2023/12/26 03:16:53;;;;;;;1.98;0.80;;;12.50;99.90;;;;;;4994322;28;20099;-85
2023/12/26 03:19:19;;;;;;;2.43;0.80;;;11.80;99.90;;;;;;4998368;28;20044;-88
2023/12/26 03:21:45;;;;;;;1.63;0.75;;;12.50;99.90;;;;;;4984686;28;20041;-89
2023/12/26 03:24:10;;;;;;;1.00;0.80;;;12.30;99.90;;;;;;5041615;28;20028;-91
2023/12/26 03:26:36;;;;;;;0.75;0.75;;;12.50;99.90;;;;;;5004748;28;20311;-91
2023/12/26 03:29:02;;;;;;;1.38;0.80;;;12.50;99.90;;;;;;4994127;28;20422;-90
2023/12/26 03:31:28;;;;;;;1.10;0.77;;;12.50;99.90;;;;;;4991535;28;20624;-87
2023/12/26 03:33:55;;;;;;;0.70;0.70;;;12.50;99.90;;;;;;5009198;28;20108;-89
2023/12/26 03:36:21;;;;;;;1.95;0.70;;;12.50;99.90;;;;;;4966108;28;20672;-89
2023/12/26 03:38:47;;;;;;;0.67;0.57;;;12.50;99.90;;;;;;4978981;28;20072;-86
2023/12/26 03:41:13;;;;;;;1.35;0.75;;;12.50;99.90;;;;;;4969198;28;20105;-91
2023/12/26 03:43:39;;;;;;;1.92;0.75;;;11.30;99.90;;;;;;4980342;28;20063;-91
2023/12/26 03:46:05;;;;;;;0.95;0.70;;;12.50;99.90;;;;;;4979153;28;20411;-86
2023/12/26 03:48:30;;;;;;;1.07;0.70;;;12.60;99.90;;;;;;4977168;28;20033;-90
2023/12/26 03:50:56;;;;;;;1.20;0.80;;;12.10;99.90;;;;;;4970462;28;20329;-86
2023/12/26 03:53:22;;;;;;;1.23;0.80;;;12.60;99.90;;;;;;5002683;28;20466;-88
2023/12/26 03:55:49;;;;;;;2.10;0.80;;;13.30;99.90;;;;;;4978942;28;20026;-90
2023/12/26 03:58:15;;;;;;;1.58;0.70;;;12.60;99.90;;;;;;5003354;28;20399;-87
2023/12/26 04:00:41;;;;;;;1.77;0.60;;;12.60;99.90;;;;;;4974655;28;20079;-88
2023/12/26 04:03:07;;;;;;;2.00;0.60;;;12.60;99.90;;;;;;4971471;28;20040;-86
2023/12/26 04:05:33;;;;;;;1.10;0.80;;;;;;;;;;4992271;28;20037;-87
2023/12/26 04:07:59;;;;;;;1.45;0.60;;;12.60;99.90;;;;;;4985035;28;20441;-87
2023/12/26 04:10:25;;;;;;;1.63;0.80;;;12.70;99.90;;;;;;5003306;28;20025;-86
2023/12/26 04:12:51;;;;;;;0.73;0.57;;;12.70;99.90;;;;;;4977537;28;20026;-88
2023/12/26 04:15:17;;;;;;;1.65;0.70;;;12.70;99.90;;;;;;4993111;28;20027;-87
2023/12/26 04:17:43;;;;;;;1.30;0.60;;;12.70;99.90;;;;;;4974050;28;20586;-89
2023/12/26 04:20:09;;;;;;;1.88;0.70;;;12.70;99.90;;;;;;4997468;28;20037;-85
2023/12/26 04:22:34;;;;;;;2.03;0.63;;;12.70;99.90;;;;;;4971500;28;20064;-86
2023/12/26 04:25:00;;;;;;;1.10;0.60;;;12.70;99.90;;;;;;4992983;28;20421;-85
2023/12/26 04:27:26;;;;;;;1.20;0.60;;;12.40;99.90;;;;;;4979536;28;20030;-87
2023/12/26 04:29:53;;;;;;;1.60;0.70;;;12.70;99.90;;;;;;4967385;28;20573;-87
2023/12/26 04:32:19;;;;;;;2.33;0.70;;;12.70;99.90;;;;;;5004881;28;20060;-87
2023/12/26 04:34:44;;;;;;;1.58;0.80;;;12.70;99.90;;;;;;5011089;28;20471;-85
2023/12/26 04:37:10;;;;;;;1.47;0.60;;;12.80;99.90;;;;;;5000684;28;20017;-87
2023/12/26 04:39:36;;;;;;;1.85;0.80;;;12.70;99.90;;;;;;5001086;28;20637;-85
2023/12/26 04:42:02;;;;;;;1.02;0.80;;;12.80;99.90;;;;;;5005011;28;20867;-87
2023/12/26 04:44:29;;;;;;;2.03;0.57;;;12.80;99.90;;;;;;4989875;28;21111;-86
2023/12/26 04:46:55;;;;;;;2.40;0.80;;;12.80;99.90;;;;;;5012159;28;20771;-87
2023/12/26 04:49:20;;;;;;;2.00;0.70;;;12.80;99.90;;;;;;5003464;28;20033;-87
2023/12/26 04:51:46;;;;;;;2.00;0.87;;;13.50;99.90;;;;;;5016030;28;20025;-87
2023/12/26 04:54:12;;;;;;;1.58;0.70;;;12.80;99.90;;;;;;4987102;28;20503;-84
2023/12/26 04:56:43;;;;;;;0.87;0.60;;;;;;;;;;5004718;28;20025;-86
2023/12/26 04:59:09;;;;;;;1.70;0.70;;;14.20;99.90;;;;;;4992548;28;20421;-85
2023/12/26 05:01:40;;;;;;;2.92;1.05;;;12.80;99.90;;;;;;5011604;28;20522;-86
2023/12/26 05:04:06;;;;;;;1.33;0.75;;;12.80;99.90;;;;;;5002739;28;20441;-85
2023/12/26 05:06:32;;;;;;;2.07;0.60;;;12.80;99.90;;;;;;5048504;28;20048;-86
2023/12/26 05:08:57;;;;;;;0.70;0.60;;;12.80;99.90;;;;;;5044989;28;20290;-87
2023/12/26 05:11:23;;;;;;;1.00;0.67;;;12.80;99.90;;;;;;5026466;28;20010;-87
2023/12/26 05:13:50;;;;;;;1.40;0.60;;;12.80;99.90;;;;;;5018363;28;20031;-87
2023/12/26 05:16:17;;;;;;;0.88;0.70;;;12.80;99.90;;;;;;5051555;28;20035;-86
2023/12/26 05:18:42;;;;;;;1.80;0.90;;;12.80;99.90;;;;;;5030986;28;20096;-86
2023/12/26 05:21:17;;;;;;;1.50;0.82;;;12.80;99.90;;;;;;5029439;28;20199;-84
2023/12/26 05:23:43;;;;;;;1.77;0.60;;;;;;;;;;5028394;28;20025;-86
2023/12/26 05:26:09;;;;;;;2.60;0.80;;;12.80;99.90;;;;;;5012222;28;20309;-86
2023/12/26 05:28:37;;;;;;;2.08;0.70;;;12.80;99.90;;;;;;5022840;28;20018;-85
2023/12/26 05:31:03;;;;;;;1.77;0.70;;;12.80;99.90;;;;;;5026692;28;20132;-85
2023/12/26 05:33:29;;;;;;;1.85;0.70;;;12.80;99.90;;;;;;5035606;28;20037;-87
2023/12/26 05:35:55;;;;;;;3.38;0.90;;;12.40;99.90;;;;;;5033783;28;20152;-88
2023/12/26 05:38:21;;;;;;;1.85;1.02;;;12.80;99.90;;;;;;5036775;28;20009;-85
2023/12/26 05:40:47;;;;;;;1.70;1.00;;;12.20;99.90;;;;;;5012555;28;20096;-86
2023/12/26 05:43:13;;;;;;;1.27;0.73;;;12.80;99.90;;;;;;5021397;28;20310;-86
2023/12/26 05:45:39;;;;;;;1.67;0.68;;;12.80;99.90;;;;;;5013280;28;20010;-87
2023/12/26 05:48:06;;;;;;;1.57;0.77;;;12.80;99.90;;;;;;5041843;28;20021;-88
2023/12/26 05:50:32;;;;;;;2.78;0.80;;;12.80;99.90;;;;;;5027156;28;20025;-85
2023/12/26 05:52:57;;;;;;;4.13;0.80;;;12.80;99.90;;;;;;5018635;28;20135;-86
2023/12/26 05:55:23;;;;;;;1.70;0.83;;;12.80;99.90;;;;;;5034312;28;20040;-86
2023/12/26 05:57:49;;;;;;;1.90;0.85;;;12.80;99.90;;;;;;5018672;28;20045;-86
2023/12/26 06:00:15;;;;;;;2.00;0.87;;;12.80;99.90;;;;;;5013803;28;20124;-86
2023/12/26 06:02:41;;;;;;;4.07;0.80;;;12.80;99.90;;;;;;5000469;28;20024;-87
2023/12/26 06:05:08;;;;;;;2.95;0.90;;;12.80;99.90;;;;;;5004446;28;20489;-88
2023/12/26 06:07:34;;;;;;;4.60;1.00;;;12.70;99.90;;;;;;5002609;28;20048;-87
2023/12/26 06:10:00;;;;;;;4.07;1.40;;;12.70;99.90;;;;;;4979970;28;20154;-83
2023/12/26 06:12:28;;;;;;;2.85;1.00;;;12.80;99.90;;;;;;5016798;28;20096;-88
2023/12/26 06:14:54;;;;;;;1.88;0.85;;;12.70;99.90;;;;;;5028715;28;20411;-87
2023/12/26 06:17:22;;;;;;;3.20;0.90;;;12.70;99.90;;;;;;5013900;28;20029;-87
2023/12/26 06:19:48;;;;;;;2.97;1.00;;;12.70;99.90;;;;;;4991637;28;20098;-84
2023/12/26 06:22:14;;;;;;;2.53;0.83;;;12.70;99.90;;;;;;4992230;28;20033;-84
2023/12/26 06:24:40;;;;;;;4.05;0.75;;;12.60;99.90;;;;;;5019025;28;20600;-86
2023/12/26 06:27:06;;;;;;;2.95;1.02;;;12.60;99.90;;;;;;5017920;28;20033;-84
2023/12/26 06:29:32;;;;;;;1.02;0.70;;;12.70;99.90;;;;;;5000589;28;20110;-86
2023/12/26 06:31:58;;;;;;;3.43;0.80;;;12.60;99.90;;;;;;5008320;28;20836;-83
2023/12/26 06:34:23;;;;;;;2.40;0.80;;;12.60;99.90;;;;;;5023459;28;20056;-86
2023/12/26 06:36:49;;;;;;;3.40;0.80;;;12.60;99.90;;;;;;4998042;28;20113;-84
2023/12/26 06:39:15;;;;;;;1.58;0.77;;;12.60;99.90;;;;;;5001192;28;20029;-86
2023/12/26 06:41:42;;;;;;;1.23;0.60;;;12.50;99.90;;;;;;4996257;28;20072;-84
2023/12/26 06:44:09;;;;;;;2.70;0.73;;;12.50;99.90;;;;;;4989769;28;20410;-88
2023/12/26 06:46:40;;;;;;;1.75;0.68;;;12.50;99.90;;;;;;5002106;28;20546;-83
2023/12/26 06:49:06;;;;;;;3.87;0.70;;;11.60;99.90;;;;;;5016359;28;20491;-85
2023/12/26 06:51:32;;;;;;;1.98;0.70;;;12.40;99.90;;;;;;5010550;28;20179;-84
2023/12/26 06:53:58;;;;;;;2.67;0.93;;;12.40;99.90;;;;;;5019752;28;20037;-87
2023/12/26 06:56:24;;;;;;;1.73;0.60;;;12.40;99.90;;;;;;4976241;28;22232;-83
2023/12/26 06:58:52;;;;;;;2.13;0.60;;;;;;;;;;4998418;28;20033;-87
2023/12/26 07:01:18;;;;;;;1.20;0.60;;;12.40;99.90;;;;;;5009917;28;20493;-84
2023/12/26 07:03:44;;;;;;;1.40;0.68;;;12.40;99.90;;;;;;4997162;28;20043;-87
2023/12/26 07:06:10;;;;;;;4.10;0.83;;;12.10;99.90;;;;;;5001539;28;20038;-85
2023/12/26 07:08:36;;;;;;;3.10;0.80;;;12.40;99.90;;;;;;5001617;28;20025;-85
2023/12/26 07:11:01;;;;;;;2.70;1.00;;;12.40;99.90;;;;;;4973946;28;20059;-83
2023/12/26 07:13:27;;;;;;;4.32;0.82;;;12.40;99.90;;;;;;5014978;28;20397;-83
2023/12/26 07:15:53;;;;;;;4.20;0.90;;;12.30;99.90;;;;;;5015067;28;20028;-86
2023/12/26 07:18:19;;;;;;;4.47;0.70;;;12.30;99.90;;;;;;5006352;28;20021;-84
2023/12/26 07:20:45;;;;;;;3.53;1.00;;;12.30;99.90;;;;;;4989943;28;20061;-87
2023/12/26 07:23:10;;;;;;;1.50;0.80;;;12.30;99.90;;;;;;4993150;28;20251;-84
2023/12/26 07:25:37;;;;;;;2.43;0.87;;;12.20;99.90;;;;;;5021719;28;20383;-85
2023/12/26 07:28:04;;;;;;;1.35;0.60;;;12.20;99.90;;;;;;5006813;28;20396;-84
2023/12/26 07:30:29;;;;;;;3.75;0.80;;;12.20;99.90;;;;;;4998371;28;20087;-83
2023/12/26 07:32:55;;;;;;;3.60;0.80;;;12.20;99.90;;;;;;5029385;28;20487;-86
2023/12/26 07:35:21;;;;;;;1.55;0.50;;;12.20;99.90;;;;;;5007945;28;20494;-85
2023/12/26 07:37:47;;;;;;;2.88;0.70;;;;;;;;;;4991223;28;20744;-86
2023/12/26 07:40:13;;;;;;;1.30;0.60;;;12.10;99.90;;;;;;5005694;28;20321;-83
2023/12/26 07:42:39;;;;;;;5.05;0.75;;;;;;;;;;4997538;28;20104;-87
2023/12/26 07:45:05;;;;;;;2.00;0.52;;;12.00;99.90;;;;;;5002303;28;20037;-85
2023/12/26 07:47:31;;;;;;;1.92;0.85;;;12.00;99.90;;;;;;5001897;28;20501;-83
2023/12/26 07:49:57;;;;;;;1.90;0.70;;;12.00;99.90;;;;;;4995736;28;20033;-87
2023/12/26 07:52:23;;;;;;;2.50;0.60;;;11.90;99.90;;;;;;4998761;28;20017;-84
2023/12/26 07:54:49;;;;;;;2.75;0.50;;;11.90;99.90;;;;;;5017816;28;20109;-87
2023/12/26 07:57:15;;;;;;;2.17;0.60;;;11.90;99.90;;;;;;5021101;28;20178;-84
2023/12/26 07:59:41;;;;;;;2.10;0.70;;;11.90;99.90;;;;;;5003801;28;20502;-88
2023/12/26 08:02:07;;;;;;;3.42;0.73;;;11.80;99.90;;;;;;5027117;28;20123;-88
2023/12/26 08:04:32;;;;;;;4.07;0.93;;;11.80;99.90;;;;;;5016108;28;20049;-85
2023/12/26 08:06:59;;;;;;;2.10;0.60;;;11.80;99.90;;;;;;5018519;28;20117;-88
2023/12/26 08:09:25;;;;;;;2.83;0.60;;;11.80;99.90;;;;;;5033873;28;20418;-83
2023/12/26 08:11:50;;;;;;;3.92;0.60;;;11.80;99.90;;;;;;5018656;28;20021;-86
2023/12/26 08:14:17;;;;;;;3.30;0.60;;;;;;;;;;5020938;28;20045;-85
2023/12/26 08:16:45;;;;;;;3.03;0.70;;;11.70;99.90;;;;;;5015634;28;20426;-85
2023/12/26 08:19:11;;;;;;;3.13;0.70;;;11.70;99.90;;;;;;5002867;28;20474;-85
2023/12/26 08:21:39;;;;;;;2.03;0.80;;;11.70;99.90;;;;;;5012746;28;20069;-86
2023/12/26 08:24:07;;;;;;;2.77;0.70;;;11.60;99.90;;;;;;5014067;28;20137;-84
2023/12/26 08:26:32;;;;;;;3.53;0.73;;;11.60;99.90;;;;;;4999666;28;20033;-85
2023/12/26 08:28:59;;;;;;;2.67;0.55;;;11.90;99.90;;;;;;4997844;28;21054;-87
2023/12/26 08:31:25;;;;;;;1.57;0.70;;;11.60;99.90;;;;;;5029935;28;20606;-85
2023/12/26 08:33:52;;;;;;;3.47;0.80;;;11.60;99.90;;;;;;5031896;28;20530;-87
2023/12/26 08:36:18;;;;;;;3.20;0.60;;;11.50;99.90;;;;;;5002835;28;20032;-84
2023/12/26 08:38:44;;;;;;;2.53;0.77;;;11.50;99.90;;;;;;5024366;28;20041;-85
2023/12/26 08:41:12;;;;;;;1.87;0.50;;;11.50;99.90;;;;;;5003063;28;20044;-84
2023/12/26 08:43:38;;;;;;;3.60;0.60;;;11.50;99.90;;;;;;5016701;28;20033;-83
2023/12/26 08:46:04;;;;;;;7.30;1.08;;;11.50;99.90;;;;;;4998002;28;20048;-83
2023/12/26 08:48:30;;;;;;;1.90;0.60;;;11.50;99.90;;;;;;5016994;28;20028;-84
2023/12/26 08:50:55;;;;;;;3.40;1.17;;;11.50;99.90;;;;;;5000709;28;20628;-85
2023/12/26 08:53:21;;;;;;;2.22;0.60;;;11.50;99.90;;;;;;5008912;28;20449;-84
2023/12/26 08:55:47;;;;;;;2.67;0.55;;;11.50;99.90;;;;;;5002240;28;20468;-88
2023/12/26 08:58:14;;;;;;;2.20;0.50;;;11.50;99.90;;;;;;4997379;28;20242;-84
2023/12/26 09:00:41;;;;;;;2.05;0.50;;;11.50;99.90;;;;;;4984724;28;20037;-86
2023/12/26 09:03:07;;;;;;;1.20;0.60;;;11.50;99.90;;;;;;4991623;28;20029;-84
2023/12/26 09:05:33;;;;;;;2.58;0.75;;;11.60;99.90;;;;;;5020413;28;20479;-83
2023/12/26 09:07:59;;;;;;;2.47;0.60;;;11.60;99.90;;;;;;5019576;28;20103;-83
2023/12/26 09:10:25;;;;;;;1.53;0.40;;;11.60;99.90;;;;;;5021284;28;20037;-85
2023/12/26 09:12:51;;;;;;;1.75;0.60;;;11.50;99.90;;;;;;5013689;28;20148;-85
2023/12/26 09:15:17;;;;;;;2.40;0.60;;;11.50;99.90;;;;;;5016416;28;20021;-84
2023/12/26 09:17:43;;;;;;;1.88;0.52;;;11.50;99.90;;;;;;5013929;28;20045;-85
2023/12/26 09:20:12;;;;;;;2.58;0.60;;;11.50;99.90;;;;;;5011704;28;20349;-83
2023/12/26 09:22:38;;;;;;;2.20;0.75;;;11.50;99.90;;;;;;5028534;28;20037;-86
2023/12/26 09:25:05;;;;;;;1.87;0.60;;;11.30;99.90;;;;;;5005995;28;20529;-86
2023/12/26 09:27:31;;;;;;;1.45;0.60;;;11.70;99.90;;;;;;5007669;28;20703;-83
2023/12/26 09:29:57;;;;;;;3.08;0.80;;;11.70;99.90;;;;;;5013605;28;20956;-82
2023/12/26 09:32:24;;;;;;;1.83;0.53;;;11.90;99.90;;;;;;5012265;28;20666;-83
2023/12/26 09:34:50;;;;;;;1.15;0.50;;;12.00;99.90;;;;;;5027563;28;20031;-84
2023/12/26 09:37:16;;;;;;;2.38;0.70;;;12.10;99.90;;;;;;5003266;28;20487;-85
2023/12/26 09:39:42;;;;;;;1.92;0.68;;;12.20;99.90;;;;;;5013598;28;20034;-84
2023/12/26 09:42:11;;;;;;;2.57;0.60;;;12.30;99.90;;;;;;4986007;28;20033;-87
2023/12/26 09:44:37;;;;;;;3.35;0.70;;;12.40;99.90;;;;;;4995410;28;20093;-86
2023/12/26 09:47:06;;;;;;;1.63;0.60;;;12.60;99.90;;;;;;4988221;28;20036;-85
2023/12/26 09:49:31;;;;;;;2.58;0.70;;;12.80;99.90;;;;;;4999898;28;20361;-82
2023/12/26 09:52:01;;;;;;;2.08;0.95;;;13.00;99.90;;;;;;5002532;28;20107;-84
2023/12/26 09:54:30;;;;;;;2.17;0.57;;;13.20;99.90;;;;;;5026578;28;20121;-83
2023/12/26 09:56:56;;;;;;;2.95;0.68;;;13.50;99.90;;;;;;4994846;28;20127;-83
2023/12/26 09:59:25;;;;;;;1.85;1.00;;;13.70;99.90;;;;;;5007629;28;20246;-84
2023/12/26 10:01:58;;;;;;;3.00;0.70;;;14.70;99.90;;;;;;5047440;27;20501;-23
2023/12/26 10:04:24;;;;;;;1.20;0.50;;;14.00;99.90;;;;;;5041908;28;20057;-25
2023/12/26 10:06:50;;;;;;;2.90;0.93;;;14.00;99.90;;;;;;5055458;28;20069;-22
2023/12/26 10:09:18;;;;;;;1.38;0.60;;;13.70;99.90;;;;;;5035989;28;20044;-25
2023/12/26 10:11:44;;;;;;;3.05;0.70;;;13.80;99.90;;;;;;5053366;28;20469;-19
2023/12/26 10:14:11;;;;;;;1.85;0.60;;;13.70;99.90;;;;;;5042289;28;20406;-22
2023/12/26 10:16:37;;;;;;;2.63;0.60;;;13.50;99.90;;;;;;5050731;28;20116;-19
2023/12/26 10:19:03;;;;;;;2.87;0.80;;;13.40;99.90;;;;;;5051126;28;20647;-18
2023/12/26 10:21:29;;;;;;;2.88;0.75;;;13.30;99.90;;;;;;5050718;28;20367;-20
2023/12/26 10:23:55;;;;;;;2.53;0.70;;;13.10;99.90;;;;;;5051546;28;20033;-19
2023/12/26 10:26:22;;;;;;;1.38;0.50;;;13.00;99.90;;;;;;5038579;28;20052;-20
2023/12/26 10:28:52;;;;;;;3.13;0.60;;;12.90;99.90;;;;;;5050717;28;20029;-21
2023/12/26 10:31:18;;;;;;;2.85;0.70;;;12.80;99.90;;;;;;5051939;28;20104;-20
2023/12/26 10:33:45;;;;;;;1.85;0.70;;;12.70;99.90;;;;;;5052399;28;20398;-19
2023/12/26 10:36:11;;;;;;;4.43;0.90;;;12.70;99.90;;;;;;5049573;28;20040;-20
2023/12/26 10:38:39;;;;;;;1.67;0.70;;;12.70;99.90;;;;;;5051161;28;20522;-19
2023/12/26 10:41:13;;;;;;;2.53;1.27;;;12.70;99.90;;;;;;5049862;28;20703;-18
2023/12/26 10:43:42;;;;;;;2.45;0.80;;;12.80;99.90;;;;;;5050272;28;20137;-19
2023/12/26 10:46:08;;;;;;;3.30;0.70;;;12.80;99.90;;;;;;5050227;28;20055;-20
2023/12/26 10:48:35;;;;;;;2.73;0.80;;;12.90;99.90;;;;;;5049085;28;20018;-21
2023/12/26 10:51:02;;;;;;;3.05;0.65;;;13.00;99.90;;;;;;5052534;28;20049;-22
2023/12/26 10:53:58;;;;;;;2.97;0.95;;;13.20;99.90;;;;;;5050285;28;20072;-21
2023/12/26 10:56:24;;;;;;;2.83;1.05;;;13.50;99.90;;;;;;5034963;28;20048;-19
2023/12/26 10:58:53;;;;;;;4.03;0.98;;;13.90;99.90;;;;;;5056652;28;20060;-19
2023/12/26 13:52:59;;;;;;;3.40;0.70;;;14.10;99.90;;;;;;5034005;28;20025;-20
2023/12/26 13:55:25;;;;;;;2.67;0.68;;;14.10;99.90;;;;;;5034267;28;20419;-23
2023/12/26 13:57:51;;;;;;;4.90;1.23;;;14.10;99.90;;;;;;5032667;28;20379;-20
2023/12/26 14:00:16;;;;;;;2.88;0.82;;;14.10;99.90;;;;;;5031098;28;21048;-20
2023/12/26 14:02:42;;;;;;;3.53;0.90;;;14.00;99.90;;;;;;5031415;28;20392;-20
2023/12/26 14:05:08;;;;;;;2.35;1.00;;;14.00;99.90;;;;;;5030481;28;20026;-23
2023/12/26 14:07:34;;;;;;;1.97;0.80;;;14.00;99.90;;;;;;5034234;28;20030;-20
2023/12/26 14:10:00;;;;;;;3.33;0.73;;;14.00;99.90;;;;;;5036278;28;20021;-20
2023/12/26 14:12:25;;;;;;;3.47;1.00;;;13.90;99.90;;;;;;5031810;28;20053;-21
2023/12/26 14:14:51;;;;;;;2.20;0.68;;;13.80;99.90;;;;;;5031078;28;20030;-20
2023/12/26 14:17:17;;;;;;;4.20;1.27;;;13.90;99.90;;;;;;5031444;28;20058;-19
2023/12/26 14:19:43;;;;;;;2.57;0.60;;;13.90;99.90;;;;;;5030558;28;20270;-21
2023/12/26 14:22:09;;;;;;;2.65;0.70;;;13.80;99.90;;;;;;5028480;28;20428;-19
2023/12/26 14:24:35;;;;;;;2.55;0.68;;;13.80;99.90;;;;;;5022420;28;20040;-22
2023/12/26 14:27:02;;;;;;;3.07;0.70;;;13.80;99.90;;;;;;5034662;28;20037;-19
2023/12/26 14:29:29;;;;;;;2.72;0.68;;;13.70;99.90;;;;;;5027785;28;20542;-20
2023/12/26 14:31:55;;;;;;;3.75;1.00;;;13.70;99.90;;;;;;5038070;28;20025;-19
2023/12/26 14:34:21;;;;;;;3.73;1.00;;;13.60;99.90;;;;;;5029169;28;20091;-22
2023/12/26 14:36:46;;;;;;;3.65;1.00;;;13.60;99.90;;;;;;5028010;28;20020;-19
2023/12/26 14:39:12;;;;;;;4.28;1.20;;;13.60;99.90;;;;;;5027498;28;20078;-19
2023/12/26 14:41:38;;;;;;;3.90;1.23;;;13.50;99.90;;;;;;5030836;28;20166;-19
2023/12/26 14:44:04;;;;;;;1.92;0.70;;;13.50;99.90;;;;;;5010796;28;20028;-20
2023/12/26 14:46:30;;;;;;;2.47;0.70;;;13.40;99.90;;;;;;5029844;28;20561;-21
2023/12/26 14:48:56;;;;;;;3.65;1.10;;;13.40;99.90;;;;;;5035117;28;20217;-19
2023/12/26 14:51:22;;;;;;;2.70;0.65;;;13.30;99.90;;;;;;5035050;28;20021;-19
2023/12/26 14:53:48;;;;;;;4.80;0.90;;;13.30;99.90;;;;;;5028701;28;20041;-24
2023/12/26 14:56:14;;;;;;;1.90;0.70;;;13.20;99.90;;;;;;5022752;28;20049;-25
2023/12/26 14:58:40;;;;;;;5.40;1.00;;;13.20;99.90;;;;;;5035934;28;20037;-27
2023/12/26 15:01:05;;;;;;;2.55;0.90;;;13.10;99.90;;;;;;5034616;28;20092;-26
2023/12/26 15:03:31;;;;;;;3.90;0.97;;;13.10;99.90;;;;;;5018670;28;20036;-23
2023/12/26 15:05:57;;;;;;;2.58;0.90;;;13.10;99.90;;;;;;5039044;28;20113;-24
2023/12/26 15:08:23;;;;;;;3.90;0.80;;;13.10;99.90;;;;;;5041010;28;20036;-24
2023/12/26 15:10:49;;;;;;;2.22;0.90;;;13.00;99.90;;;;;;5022544;28;20029;-28
2023/12/26 15:13:15;;;;;;;3.63;0.80;;;13.00;99.90;;;;;;5039421;28;20640;-27
2023/12/26 15:15:41;;;;;;;3.92;0.75;;;13.00;99.90;;;;;;5037031;28;20052;-28
2023/12/26 15:18:07;;;;;;;6.43;1.20;;;12.90;99.90;;;;;;5035489;28;20021;-26
2023/12/26 15:20:33;;;;;;;3.03;0.80;;;12.90;99.90;;;;;;5021165;28;20041;-23
2023/12/26 15:22:59;;;;;;;2.72;0.60;;;12.80;99.90;;;;;;5036973;28;20040;-22
2023/12/26 15:25:25;;;;;;;1.73;0.70;;;12.80;99.90;;;;;;5016930;28;20055;-26
2023/12/26 15:27:50;;;;;;;4.20;1.10;;;12.70;99.90;;;;;;5041650;28;20039;-27
2023/12/26 15:30:16;;;;;;;3.53;0.97;;;12.70;99.90;;;;;;5039143;28;20491;-23
2023/12/26 15:32:42;;;;;;;3.33;0.60;;;12.60;99.90;;;;;;5040331;28;20065;-25
2023/12/26 15:35:08;;;;;;;2.72;0.73;;;12.60;99.90;;;;;;5036084;28;20104;-23
2023/12/26 15:37:34;;;;;;;2.60;0.60;;;12.50;99.90;;;;;;5036456;28;20044;-25